Time;durP1;ratioP1;P1;durP2;ratioP2;P2;SDS_P1;SDS_P2;PMS_P1;PMS_P2;Temp;Humidity;BMP_temperature;BMP_pressure;BME280_temperature;BME280_humidity;BME280_pressure;Samples;Min_cycle;Max_cycle;Signal;HPM_P1;HPM_P2
2024/02/09 00:01:37;;;;;;;3.87;1.70;;;;;;;7.72;100.00;96062.66;6206836;28;20590;-59
2024/02/09 00:04:39;;;;;;;7.00;1.80;;;;;;;7.61;100.00;96069.00;6201317;28;20244;-57
2024/02/09 00:07:48;;;;;;;3.07;1.43;;;;;;;7.42;100.00;96050.94;6203028;28;20196;-59
2024/02/09 00:10:51;;;;;;;6.43;1.23;;;;;;;7.60;100.00;96070.06;6206448;28;20194;-58
2024/02/09 00:13:55;;;;;;;2.30;1.10;;;;;;;7.67;100.00;96067.94;6206754;28;20196;-58
2024/02/09 00:16:58;;;;;;;3.07;1.10;;;;;;;7.62;100.00;96067.94;6215322;28;20205;-57
2024/02/09 00:20:00;;;;;;;5.67;1.10;;;;;;;7.67;100.00;96057.34;6208435;28;20202;-58
2024/02/09 00:23:03;;;;;;;4.90;1.20;;;;;;;7.62;100.00;96039.59;6203559;28;20358;-58
2024/02/09 00:26:06;;;;;;;4.97;1.13;;;;;;;7.96;100.00;96045.19;6212337;28;20198;-58
2024/02/09 00:29:09;;;;;;;7.43;1.50;;;;;;;7.90;100.00;96046.25;6213467;28;20675;-58
2024/02/09 00:32:14;;;;;;;2.13;1.10;;;;;;;7.91;100.00;96047.03;6217265;28;20196;-58
2024/02/09 00:35:18;;;;;;;2.90;1.17;;;;;;;7.76;100.00;96042.53;6209117;28;20949;-58
2024/02/09 00:38:20;;;;;;;5.87;1.50;;;;;;;7.72;100.00;96036.94;6207608;28;20275;-59
2024/02/09 00:41:22;;;;;;;3.90;1.10;;;;;;;7.73;100.00;96037.75;6219564;28;20218;-59
2024/02/09 00:44:24;;;;;;;5.40;1.50;;;;;;;7.87;100.00;96036.16;6209181;28;20272;-58
2024/02/09 00:47:27;;;;;;;5.63;1.20;;;;;;;7.79;100.00;96030.63;6219025;28;20191;-58
2024/02/09 00:50:30;;;;;;;4.90;1.30;;;;;;;7.59;100.00;96037.47;6210158;28;20817;-59
2024/02/09 00:53:33;;;;;;;3.43;1.03;;;;;;;7.52;100.00;96034.28;6213235;28;20594;-59
2024/02/09 00:56:35;;;;;;;5.37;2.40;;;;;;;7.56;100.00;96034.56;6213461;28;20678;-59
2024/02/09 00:59:38;;;;;;;6.57;1.80;;;;;;;7.94;100.00;96025.31;6211626;28;20553;-58
2024/02/09 01:02:44;;;;;;;6.57;1.90;;;;;;;7.68;100.00;96019.19;6213587;28;20210;-59
2024/02/09 01:05:47;;;;;;;5.67;1.70;;;;;;;7.54;100.00;96023.41;6191732;28;20707;-59
2024/02/09 01:08:50;;;;;;;6.07;3.10;;;;;;;7.54;100.00;96029.53;6210480;28;20202;-58
2024/02/09 01:11:52;;;;;;;4.73;2.00;;;;;;;7.50;100.00;96034.53;6214406;28;20193;-59
2024/02/09 02:45:29;;;;;;;4.40;2.00;;;;;;;7.19;100.00;95948.13;6205785;28;20224;-58
2024/02/09 03:05:15;;;;;;;4.80;1.10;;;;;;;6.69;100.00;95931.84;6215314;28;20236;-58
2024/02/09 03:08:17;;;;;;;4.23;1.53;;;;;;;6.72;100.00;95938.50;6210497;28;20282;-60
2024/02/09 03:11:23;;;;;;;3.00;1.37;;;;;;;6.65;100.00;95930.81;6209814;28;20208;-58
2024/02/09 03:14:27;;;;;;;3.70;0.87;;;;;;;6.66;100.00;95923.66;6206574;28;20668;-58
2024/02/09 03:17:30;;;;;;;6.47;1.10;;;;;;;6.62;100.00;95928.66;6210773;28;20206;-60
2024/02/09 03:20:34;;;;;;;3.43;1.13;;;;;;;6.25;100.00;95918.19;6210067;28;20184;-59
2024/02/09 03:23:36;;;;;;;4.30;1.37;;;;;;;6.33;100.00;95922.19;6204804;28;20211;-60
2024/02/09 03:26:39;;;;;;;6.10;1.50;;;;;;;6.49;100.00;95915.13;6215525;28;20329;-60
2024/02/09 03:29:42;;;;;;;4.53;1.20;;;;;;;6.27;100.00;95910.00;6204076;28;20201;-59
2024/02/09 03:32:45;;;;;;;6.17;1.70;;;;;;;6.20;100.00;95907.59;6202008;28;20617;-59
2024/02/09 03:35:48;;;;;;;4.07;1.23;;;;;;;6.12;100.00;95908.88;6209902;28;20200;-59
2024/02/09 03:38:50;;;;;;;2.30;1.20;;;;;;;5.99;100.00;95900.63;6207445;28;20288;-58
2024/02/09 03:41:53;;;;;;;3.53;1.57;;;;;;;5.83;100.00;95878.56;6203567;28;20596;-60
2024/02/09 03:44:57;;;;;;;4.13;1.30;;;;;;;5.74;100.00;95883.53;6209471;28;20308;-59
2024/02/09 03:48:00;;;;;;;6.97;1.13;;;;;;;5.80;100.00;95889.63;6180642;28;20208;-59
2024/02/09 03:51:03;;;;;;;5.20;2.03;;;;;;;5.17;100.00;95799.69;6214054;28;20840;-58
2024/02/09 03:54:06;;;;;;;2.93;1.13;;;;;;;5.62;100.00;95872.38;6209498;28;20195;-59
2024/02/09 03:57:08;;;;;;;4.87;1.20;;;;;;;6.00;100.00;95881.84;6220918;28;20206;-58
2024/02/09 04:00:15;;;;;;;4.13;1.53;;;;;;;5.69;100.00;95886.94;6212331;28;20206;-59
2024/02/09 04:03:18;;;;;;;3.47;1.00;;;;;;;5.57;100.00;95873.13;6212023;28;20698;-59
2024/02/09 04:06:24;;;;;;;3.37;1.23;;;;;;;5.73;100.00;95889.06;6213376;28;20365;-59
2024/02/09 04:09:27;;;;;;;6.83;1.50;;;;;;;5.86;100.00;95883.31;6209881;28;20200;-59
2024/02/09 04:12:49;;;;;;;3.87;1.00;;;;;;;5.72;100.00;95872.44;6217535;28;20275;-59
2024/02/09 04:15:51;;;;;;;10.43;1.60;;;;;;;5.42;100.00;95838.69;6212352;28;20200;-59
2024/02/09 04:18:53;;;;;;;4.90;1.10;;;;;;;5.64;100.00;95868.41;6207099;28;20212;-58
2024/02/09 04:21:56;;;;;;;6.17;1.60;;;;;;;5.71;100.00;95868.19;6215029;28;20683;-57
2024/02/09 04:24:59;;;;;;;3.20;1.20;;;;;;;5.66;100.00;95853.13;6207355;28;20200;-57
2024/02/09 04:28:03;;;;;;;3.07;1.37;;;;;;;5.67;100.00;95841.50;6216251;28;20215;-59
2024/02/09 04:31:06;;;;;;;1.10;0.83;;;;;;;5.69;100.00;95854.44;6211442;28;20693;-59
2024/02/09 04:34:11;;;;;;;4.20;1.50;;;;;;;5.66;100.00;95858.41;6208515;28;20580;-59
2024/02/09 04:37:14;;;;;;;5.93;1.30;;;;;;;5.64;100.00;95859.69;6212326;28;20674;-59
2024/02/09 04:40:19;;;;;;;4.10;1.00;;;;;;;5.73;100.00;95852.88;6209838;28;20577;-59
2024/02/09 04:43:22;;;;;;;5.40;1.50;;;;;;;5.63;100.00;95840.41;6218323;28;20298;-58
2024/02/09 04:46:25;;;;;;;1.90;1.07;;;;;;;5.18;100.00;95756.44;6211030;28;20207;-59
2024/02/09 04:49:27;;;;;;;3.93;1.10;;;;;;;5.52;100.00;95836.13;6205107;28;20550;-59
2024/02/09 04:52:29;;;;;;;4.17;1.10;;;;;;;5.49;100.00;95841.91;6209186;28;20218;-58
2024/02/09 04:55:31;;;;;;;6.00;1.20;;;;;;;5.48;100.00;95845.59;6205781;28;20897;-60
2024/02/09 04:58:33;;;;;;;3.13;1.10;;;;;;;5.47;100.00;95848.47;6209426;28;20685;-59
2024/02/09 05:01:40;;;;;;;4.73;1.00;;;;;;;5.44;100.00;95858.50;6214657;28;20199;-59
2024/02/09 05:04:49;;;;;;;5.00;1.10;;;;;;;5.43;100.00;95877.25;6211033;28;20239;-59
2024/02/09 05:07:51;;;;;;;5.53;1.33;;;;;;;5.44;100.00;95865.63;6213851;28;20210;-59
2024/02/09 05:10:55;;;;;;;5.13;1.17;;;;;;;5.72;100.00;95843.38;6215538;28;20227;-58
2024/02/09 05:13:58;;;;;;;4.70;1.40;;;;;;;5.60;100.00;95850.69;6215546;28;20650;-59
2024/02/09 05:17:00;;;;;;;6.17;1.73;;;;;;;5.56;100.00;95841.66;6209921;28;20198;-58
2024/02/09 05:20:03;;;;;;;6.50;2.00;;;;;;;5.57;100.00;95848.56;6215617;28;20287;-58
2024/02/09 05:23:06;;;;;;;3.87;1.80;;;;;;;5.56;100.00;95834.53;6207883;28;20751;-59
2024/02/09 05:26:09;;;;;;;2.77;1.43;;;;;;;5.88;100.00;95837.09;6215555;28;20573;-59
2024/02/09 05:29:11;;;;;;;5.03;1.50;;;;;;;6.03;100.00;95846.97;6210929;28;20221;-59
2024/02/09 05:32:14;;;;;;;4.97;1.40;;;;;;;5.75;100.00;95832.28;6210923;28;20202;-58
2024/02/09 05:35:16;;;;;;;3.67;2.27;;;;;;;5.50;100.00;95814.44;6200080;28;20724;-58
2024/02/09 05:38:18;;;;;;;6.90;2.53;;;;;;;5.81;100.00;95828.63;6205482;28;20216;-59
2024/02/09 05:41:21;;;;;;;3.87;1.93;;;;;;;5.91;100.00;95827.84;6204504;28;20201;-59
2024/02/09 05:44:23;;;;;;;9.00;2.33;;;;;;;5.91;100.00;95817.28;6212591;28;20225;-60
2024/02/09 05:47:30;;;;;;;5.70;2.63;;;;;;;5.99;100.00;95811.53;6210338;28;20203;-59
2024/02/09 05:50:32;;;;;;;5.67;2.73;;;;;;;5.82;100.00;95811.72;6211471;28;20197;-59
2024/02/09 05:53:42;;;;;;;6.27;3.00;;;;;;;5.69;100.00;95801.59;6209680;28;20204;-58
2024/02/09 05:56:46;;;;;;;9.90;3.73;;;;;;;5.64;100.00;95801.56;6202607;28;20196;-59
2024/02/09 05:59:48;;;;;;;6.93;2.77;;;;;;;5.71;100.00;95802.13;6203963;28;20209;-58
2024/02/09 06:02:51;;;;;;;4.90;3.10;;;;;;;5.95;100.00;95795.41;6205510;28;20684;-58
2024/02/09 06:05:53;;;;;;;6.53;2.90;;;;;;;5.86;100.00;95802.22;6211228;28;20240;-59
2024/02/09 06:08:56;;;;;;;8.47;3.50;;;;;;;5.75;100.00;95803.22;6211589;28;20207;-58
2024/02/09 06:12:00;;;;;;;7.07;3.43;;;;;;;5.74;100.00;95809.56;6184870;28;20205;-59
2024/02/09 06:15:03;;;;;;;5.27;4.07;;;;;;;5.70;100.00;95809.25;6210676;28;20189;-58
2024/02/09 06:18:05;;;;;;;7.47;4.30;;;;;;;5.69;100.00;95805.03;6199920;28;20206;-59
2024/02/09 06:21:08;;;;;;;4.97;3.90;;;;;;;5.69;100.00;95817.44;6207446;28;20226;-58
2024/02/09 06:24:10;;;;;;;7.23;3.77;;;;;;;5.52;100.00;95795.72;6209906;28;20257;-58
2024/02/09 06:27:12;;;;;;;4.57;3.57;;;;;;;5.67;100.00;95811.66;6204968;28;20204;-59
2024/02/09 06:30:17;;;;;;;7.03;3.53;;;;;;;5.73;100.00;95818.53;6206642;28;20200;-58
2024/02/09 06:33:19;;;;;;;5.47;3.73;;;;;;;5.62;100.00;95795.78;6204163;28;20744;-58
2024/02/09 06:36:22;;;;;;;5.10;3.47;;;;;;;5.79;100.00;95812.22;6209517;28;20199;-59
2024/02/09 06:39:24;;;;;;;6.57;3.80;;;;;;;5.98;100.00;95820.53;6209363;28;20658;-57
2024/02/09 06:42:26;;;;;;;6.37;3.30;;;;;;;5.85;100.00;95807.75;6201106;28;20195;-58
2024/02/09 06:45:28;;;;;;;7.17;3.93;;;;;;;5.85;100.00;95811.19;6209728;28;20210;-58
2024/02/09 06:48:31;;;;;;;10.87;3.90;;;;;;;5.80;100.00;95813.81;6211200;28;20232;-58
2024/02/09 06:51:34;;;;;;;5.30;2.90;;;;;;;5.78;100.00;95813.28;6216676;28;20278;-57
2024/02/09 06:54:36;;;;;;;5.30;3.77;;;;;;;6.24;100.00;95820.63;6202611;28;20182;-59
2024/02/09 06:57:44;;;;;;;6.27;3.40;;;;;;;6.04;100.00;95824.78;6200129;28;20323;-58
2024/02/09 07:00:48;;;;;;;4.87;3.43;;;;;;;5.77;100.00;95808.25;6211309;28;20193;-58
2024/02/09 07:03:52;;;;;;;4.90;3.40;;;;;;;6.06;100.00;95812.13;6203128;28;20741;-59
2024/02/09 07:06:55;;;;;;;7.57;3.50;;;;;;;6.07;100.00;95826.13;6208463;28;20236;-59
2024/02/09 07:09:57;;;;;;;10.30;3.03;;;;;;;6.39;100.00;95825.94;6207287;28;20201;-58
2024/02/09 07:13:02;;;;;;;7.83;3.47;;;;;;;6.24;100.00;95832.00;6185410;28;20208;-58
2024/02/09 07:16:06;;;;;;;6.00;3.17;;;;;;;6.24;100.00;95834.63;6211787;28;20196;-59
2024/02/09 07:19:11;;;;;;;5.60;3.63;;;;;;;6.27;100.00;95812.19;6211189;28;20681;-59
2024/02/09 07:22:13;;;;;;;6.40;3.50;;;;;;;6.28;100.00;95830.41;6207222;28;20224;-57
2024/02/09 07:25:16;;;;;;;4.57;3.10;;;;;;;6.46;100.00;95827.31;6210491;28;20228;-59
2024/02/09 07:28:18;;;;;;;4.23;2.67;;;;;;;6.39;100.00;95823.31;6210094;28;20687;-57
2024/02/09 07:31:21;;;;;;;6.17;2.97;;;;;;;6.71;100.00;95815.19;6205293;28;20197;-58
2024/02/09 07:34:23;;;;;;;7.47;3.53;;;;;;;6.69;100.00;95807.50;6211390;28;20200;-59
2024/02/09 07:37:26;;;;;;;4.37;2.83;;;;;;;6.95;100.00;95816.25;6209202;28;20756;-59
2024/02/09 07:40:28;;;;;;;8.20;3.10;;;;;;;6.86;100.00;95809.91;6209139;28;20693;-58
2024/02/09 07:43:33;;;;;;;9.50;3.70;;;;;;;6.80;100.00;95815.44;6215799;28;20211;-60
2024/02/09 07:46:37;;;;;;;7.17;2.60;;;;;;;6.82;100.00;95800.91;6211289;28;20190;-59
2024/02/09 07:49:39;;;;;;;5.70;3.03;;;;;;;6.88;100.00;95799.03;6211695;28;20219;-58
2024/02/09 07:52:42;;;;;;;5.10;3.17;;;;;;;6.94;100.00;95800.63;6199179;28;20216;-58
2024/02/09 07:55:45;;;;;;;3.47;2.90;;;;;;;6.98;100.00;95799.84;6210052;28;20328;-59
2024/02/09 07:58:47;;;;;;;8.10;2.87;;;;;;;7.06;100.00;95797.72;6210944;28;20683;-59
2024/02/09 08:01:53;;;;;;;6.80;3.10;;;;;;;7.09;100.00;95792.69;6209454;28;20199;-59
2024/02/09 08:04:56;;;;;;;3.90;2.87;;;;;;;7.14;100.00;95779.47;6198388;28;20240;-59
2024/02/09 08:08:28;;;;;;;4.93;2.80;;;;;;;7.20;100.00;95778.41;6208176;28;20572;-59
2024/02/09 08:12:01;;;;;;;6.70;2.67;;;;;;;7.13;100.00;95761.97;6210156;28;20197;-59
2024/02/09 08:15:51;;;;;;;4.60;2.63;;;;;;;7.31;100.00;95773.88;6207966;28;20641;-60
2024/02/09 08:18:59;;;;;;;6.70;2.60;;;;;;;7.37;100.00;95766.72;6211145;28;20579;-59
2024/02/09 08:22:03;;;;;;;5.37;2.53;;;;;;;7.43;100.00;95761.13;6193042;28;20196;-59
2024/02/09 08:25:05;;;;;;;6.60;2.77;;;;;;;7.56;100.00;95761.63;6202205;28;20212;-58
2024/02/09 08:28:07;;;;;;;6.50;2.87;;;;;;;7.62;100.00;95747.31;6204602;28;20196;-59
2024/02/09 08:31:13;;;;;;;6.43;3.73;;;;;;;7.73;100.00;95749.66;6212765;28;20190;-58
2024/02/09 08:34:15;;;;;;;11.23;4.40;;;;;;;7.78;100.00;95740.06;6203924;28;20197;-58
2024/02/09 08:37:19;;;;;;;8.67;5.07;;;;;;;7.74;100.00;95751.25;6215048;28;20203;-59
2024/02/09 08:40:21;;;;;;;10.27;4.73;;;;;;;7.66;100.00;95753.66;6206208;28;20193;-58
2024/02/09 08:43:23;;;;;;;9.80;5.23;;;;;;;7.63;100.00;95760.28;6214988;28;20208;-59
2024/02/09 08:46:26;;;;;;;11.00;5.37;;;;;;;7.63;100.00;95770.88;6192436;28;20193;-58
2024/02/09 08:49:29;;;;;;;8.23;4.80;;;;;;;7.65;100.00;95789.97;6208102;28;20201;-59
2024/02/09 08:52:31;;;;;;;7.73;5.37;;;;;;;7.69;100.00;95779.63;6219580;28;20674;-60
2024/02/09 08:55:34;;;;;;;7.90;5.07;;;;;;;7.70;100.00;95768.75;6215124;28;20182;-59
2024/02/09 08:58:36;;;;;;;11.30;6.80;;;;;;;7.90;100.00;95783.78;6216595;28;20193;-59
2024/02/09 09:01:39;;;;;;;14.77;9.07;;;;;;;8.11;100.00;95781.84;6211118;28;20208;-58
2024/02/09 09:04:41;;;;;;;16.03;9.97;;;;;;;8.23;100.00;95781.53;6197966;28;20240;-58
2024/02/09 09:07:45;;;;;;;19.30;11.63;;;;;;;8.22;100.00;95778.06;6217462;28;20207;-59
2024/02/09 09:10:48;;;;;;;16.03;11.10;;;;;;;8.25;100.00;95782.03;6209720;28;20200;-58
2024/02/09 09:13:50;;;;;;;14.77;10.13;;;;;;;8.44;100.00;95768.97;6210955;28;20563;-59
2024/02/09 09:16:53;;;;;;;16.07;10.23;;;;;;;8.56;99.88;95780.03;6206901;28;20193;-59
2024/02/09 09:20:10;;;;;;;16.47;11.00;;;;;;;8.70;98.44;95780.19;6211374;28;20569;-58
2024/02/09 09:23:15;;;;;;;14.80;11.43;;;;;;;8.80;98.38;95780.13;6201633;28;20193;-58
2024/02/09 09:26:17;;;;;;;16.20;10.47;;;;;;;8.92;96.78;95771.81;6206423;28;20724;-59
2024/02/09 09:29:30;;;;;;;17.93;10.47;;;;;;;9.09;96.25;95766.88;6211017;28;20686;-58
2024/02/09 09:32:32;;;;;;;16.33;11.27;;;;;;;9.02;94.82;95732.69;6213717;28;20205;-58
2024/02/09 09:35:34;;;;;;;18.53;11.33;;;;;;;9.36;90.89;95769.03;6208627;28;20537;-59
2024/02/09 09:38:36;;;;;;;20.07;12.13;;;;;;;9.35;91.15;95770.09;6200646;28;20221;-58
2024/02/09 09:41:41;;;;;;;15.33;11.83;;;;;;;9.37;89.78;95770.63;6210187;28;20207;-59
2024/02/09 09:44:44;;;;;;;12.97;10.53;;;;;;;9.42;90.43;95751.97;6195222;28;20765;-59
2024/02/09 09:47:50;;;;;;;16.63;11.40;;;;;;;9.53;89.38;95748.13;6213030;28;20215;-58
2024/02/09 09:50:54;;;;;;;19.60;11.83;;;;;;;9.64;88.05;95740.03;6215043;28;20563;-58
2024/02/09 09:53:57;;;;;;;18.23;12.47;;;;;;;9.70;87.20;95723.72;6217424;28;20718;-57
2024/02/09 09:57:00;;;;;;;18.90;12.10;;;;;;;9.85;85.51;95733.41;6209807;28;20709;-58
2024/02/09 10:00:03;;;;;;;18.60;11.83;;;;;;;9.92;85.84;95735.72;6215893;28;20673;-57
2024/02/09 10:03:07;;;;;;;15.60;10.37;;;;;;;10.23;83.06;95731.59;6213198;28;20199;-57
2024/02/09 10:06:09;;;;;;;10.97;6.00;;;;;;;10.58;79.09;95730.31;6212496;28;20654;-57
2024/02/09 10:09:12;;;;;;;9.80;6.57;;;;;;;10.71;77.73;95704.84;6217243;28;20202;-57
2024/02/09 10:12:15;;;;;;;15.43;9.27;;;;;;;10.82;78.44;95722.22;6213688;28;20327;-57
2024/02/09 10:15:17;;;;;;;11.63;7.50;;;;;;;10.81;78.35;95712.66;6212749;28;20226;-57
2024/02/09 10:18:19;;;;;;;9.83;7.13;;;;;;;10.95;77.04;95706.59;6213751;28;20231;-58
2024/02/09 10:21:21;;;;;;;12.43;8.70;;;;;;;11.19;79.13;95701.91;6214784;28;20196;-59
2024/02/09 10:24:24;;;;;;;18.07;12.00;;;;;;;11.40;74.34;95701.53;6203121;28;20204;-56
2024/02/09 10:27:26;;;;;;;18.20;12.70;;;;;;;11.38;74.08;95693.84;6186624;28;20693;-58
2024/02/09 10:30:31;;;;;;;16.47;11.47;;;;;;;11.39;75.36;95699.94;6209559;28;20283;-58
2024/02/09 10:33:35;;;;;;;17.90;12.63;;;;;;;11.27;75.11;95671.09;6207272;28;20196;-59
2024/02/09 10:36:40;;;;;;;15.67;11.60;;;;;;;11.60;74.24;95698.47;6212435;28;20372;-59
2024/02/09 10:39:43;;;;;;;16.23;11.57;;;;;;;11.74;73.30;95690.47;6212834;28;20220;-59
2024/02/09 10:42:46;;;;;;;16.97;11.87;;;;;;;11.72;74.04;95672.06;6209686;28;20197;-58
2024/02/09 10:45:50;;;;;;;17.57;11.87;;;;;;;12.09;71.42;95700.44;6204196;28;20200;-57
2024/02/09 10:49:00;;;;;;;15.50;10.67;;;;;;;12.23;70.57;95686.25;6205571;28;20192;-58
2024/02/09 10:52:04;;;;;;;12.77;9.93;;;;;;;12.12;68.68;95678.47;6214913;28;20204;-58
2024/02/09 10:55:09;;;;;;;15.20;10.67;;;;;;;12.09;69.32;95691.63;6201833;28;20201;-56
2024/02/09 10:58:12;;;;;;;13.53;10.00;;;;;;;12.11;69.51;95684.09;6208760;28;20193;-58
2024/02/09 11:01:14;;;;;;;13.57;9.50;;;;;;;12.13;69.57;95700.63;6215618;28;20197;-58
2024/02/09 11:04:18;;;;;;;15.17;9.83;;;;;;;12.15;68.42;95677.06;6206332;28;20208;-58
2024/02/09 11:07:21;;;;;;;12.87;10.00;;;;;;;12.41;67.95;95682.63;6201945;28;20283;-58
2024/02/09 11:10:29;;;;;;;14.57;10.10;;;;;;;12.28;67.45;95676.25;6201682;28;20261;-58
2024/02/09 11:13:31;;;;;;;15.73;9.63;;;;;;;12.14;66.85;95678.16;6208403;28;20185;-58
2024/02/09 11:16:45;;;;;;;15.97;10.40;;;;;;;12.01;67.22;95682.44;6211675;28;20186;-58
2024/02/09 11:19:48;;;;;;;12.63;9.20;;;;;;;11.87;67.68;95666.47;6206102;28;20196;-57
2024/02/09 11:22:58;;;;;;;16.87;9.47;;;;;;;12.03;67.49;95684.81;6215815;28;20274;-57
2024/02/09 11:26:01;;;;;;;12.37;8.90;;;;;;;12.22;67.35;95682.03;6201972;28;20214;-58
2024/02/09 11:29:04;;;;;;;12.27;8.83;;;;;;;12.40;66.78;95679.16;6200383;28;20572;-58
2024/02/09 11:32:06;;;;;;;13.30;9.30;;;;;;;12.49;66.83;95668.56;6210979;28;20776;-58
2024/02/09 11:35:10;;;;;;;12.43;8.87;;;;;;;12.53;66.72;95666.09;6206325;28;20247;-58
2024/02/09 11:38:13;;;;;;;11.70;8.40;;;;;;;12.57;66.53;95659.84;6208865;28;20228;-59
2024/02/09 11:41:15;;;;;;;11.43;9.13;;;;;;;12.60;66.26;95653.06;6209484;28;20356;-58
2024/02/09 11:44:18;;;;;;;11.40;8.83;;;;;;;12.66;65.32;95649.22;6211417;28;20200;-58
2024/02/09 11:47:21;;;;;;;9.80;8.07;;;;;;;12.73;66.16;95649.56;6208005;28;20283;-58
2024/02/09 11:50:24;;;;;;;13.43;8.83;;;;;;;12.79;66.23;95644.88;6209252;28;20209;-59
2024/02/09 11:53:26;;;;;;;12.27;9.37;;;;;;;12.77;65.23;95642.50;6200986;28;20216;-58
2024/02/09 11:56:31;;;;;;;13.17;9.13;;;;;;;12.75;63.77;95628.66;6205023;28;20201;-58
2024/02/09 11:59:33;;;;;;;12.13;8.77;;;;;;;12.90;63.25;95648.84;6210704;28;20208;-59
2024/02/09 12:02:36;;;;;;;11.57;8.83;;;;;;;12.86;64.16;95653.25;6208195;28;20204;-58
2024/02/09 12:05:38;;;;;;;12.80;9.10;;;;;;;12.67;64.53;95628.63;6203678;28;20294;-59
2024/02/09 12:08:40;;;;;;;11.27;8.60;;;;;;;12.72;64.06;95633.84;6205284;28;20658;-58
2024/02/09 12:11:46;;;;;;;11.70;8.87;;;;;;;12.81;63.92;95651.50;6208882;28;20200;-57
2024/02/09 12:14:48;;;;;;;13.60;8.80;;;;;;;12.81;64.49;95648.84;6214896;28;20185;-59
2024/02/09 12:17:50;;;;;;;13.63;9.63;;;;;;;12.71;63.94;95640.25;6216531;28;20259;-59
2024/02/09 12:20:54;;;;;;;11.97;9.53;;;;;;;12.68;64.14;95630.19;6212027;28;20195;-56
2024/02/09 12:23:56;;;;;;;16.80;9.60;;;;;;;12.78;64.96;95637.97;6220845;28;20205;-58
2024/02/09 12:26:59;;;;;;;15.07;10.60;;;;;;;12.57;64.29;95632.34;6213258;28;20662;-57
2024/02/09 12:30:09;;;;;;;16.07;10.33;;;;;;;12.71;64.28;95638.41;6204453;28;20198;-59
2024/02/09 12:33:17;;;;;;;11.53;9.67;;;;;;;12.70;64.35;95636.81;6211047;28;20289;-58
2024/02/09 12:36:23;;;;;;;15.47;9.93;;;;;;;12.70;64.21;95638.69;6205189;28;20201;-58
2024/02/09 12:39:26;;;;;;;17.03;11.23;;;;;;;12.81;63.83;95637.34;6212710;28;20201;-57
2024/02/09 12:42:32;;;;;;;13.57;9.90;;;;;;;12.68;64.16;95640.88;6211440;28;20304;-59
2024/02/09 12:45:34;;;;;;;15.30;10.40;;;;;;;12.68;64.48;95632.88;6205275;28;20573;-58
2024/02/09 12:48:36;;;;;;;13.17;10.10;;;;;;;12.63;65.15;95637.25;6202584;28;20197;-59
2024/02/09 12:51:39;;;;;;;15.60;10.17;;;;;;;12.63;65.32;95634.56;6214862;28;20247;-57
2024/02/09 12:54:42;;;;;;;13.33;9.97;;;;;;;12.59;64.91;95632.81;6210976;28;20201;-59
2024/02/09 12:57:49;;;;;;;12.93;9.20;;;;;;;12.47;65.72;95625.34;6207745;28;20223;-59
2024/02/09 13:01:01;;;;;;;16.27;10.80;;;;;;;12.54;64.77;95636.38;6210396;28;20205;-58
2024/02/09 13:04:09;;;;;;;15.80;10.93;;;;;;;12.44;65.13;95638.53;6208555;28;20203;-58
2024/02/09 13:07:21;;;;;;;16.63;10.93;;;;;;;12.42;65.27;95636.16;6182611;28;20201;-58
2024/02/09 13:10:23;;;;;;;14.57;10.17;;;;;;;12.33;65.52;95616.63;6188184;28;20486;-57
2024/02/09 13:13:26;;;;;;;14.40;10.43;;;;;;;12.22;65.39;95613.41;6182063;28;20786;-59
2024/02/09 13:16:28;;;;;;;13.47;10.67;;;;;;;12.23;66.09;95627.53;6183176;28;20201;-59
2024/02/09 13:19:30;;;;;;;15.77;10.50;;;;;;;12.23;66.05;95616.84;6184379;28;20213;-57
2024/02/09 13:22:33;;;;;;;14.10;10.70;;;;;;;12.18;66.54;95615.09;6180279;28;20264;-59
2024/02/09 13:25:36;;;;;;;12.77;10.03;;;;;;;12.23;66.69;95622.19;6182899;28;20206;-58
2024/02/09 13:28:39;;;;;;;14.03;10.00;;;;;;;12.25;67.23;95622.66;6185140;28;20197;-59
2024/02/09 13:31:41;;;;;;;14.30;9.63;;;;;;;12.12;67.92;95600.28;6189958;28;20219;-58
2024/02/09 13:34:44;;;;;;;13.23;9.83;;;;;;;12.27;67.87;95626.63;6189517;28;20333;-58
2024/02/09 13:37:49;;;;;;;11.43;10.10;;;;;;;12.24;67.80;95632.56;6184415;28;20205;-58
2024/02/09 13:40:53;;;;;;;15.80;9.60;;;;;;;12.22;68.00;95634.75;6195834;28;20198;-57
2024/02/09 13:43:57;;;;;;;13.07;9.40;;;;;;;12.21;68.37;95643.03;6185735;28;20675;-58
2024/02/09 13:47:00;;;;;;;13.87;10.63;;;;;;;12.26;68.69;95638.38;6175917;28;20437;-58
2024/02/09 13:50:02;;;;;;;13.70;10.60;;;;;;;12.20;68.26;95642.25;6182581;28;20695;-58
2024/02/09 13:53:05;;;;;;;12.87;9.93;;;;;;;12.19;69.24;95642.56;6181677;28;20206;-59
2024/02/09 13:56:07;;;;;;;14.13;10.67;;;;;;;12.14;69.64;95646.13;6192566;28;20316;-58
2024/02/09 13:59:09;;;;;;;14.67;10.93;;;;;;;12.12;69.45;95643.78;6175594;28;20672;-57
2024/02/09 14:02:11;;;;;;;15.17;10.53;;;;;;;12.11;69.12;95631.50;6185718;28;20202;-58
2024/02/09 14:05:16;;;;;;;13.03;10.40;;;;;;;12.14;68.74;95636.25;6194538;28;20233;-58
2024/02/09 14:08:20;;;;;;;14.27;9.67;;;;;;;12.08;69.93;95637.47;6209914;28;20197;-58
2024/02/09 14:11:44;;;;;;;15.13;11.23;;;;;;;12.00;71.21;95640.06;6205136;28;20204;-56
2024/02/09 14:14:47;;;;;;;15.27;10.50;;;;;;;11.96;71.08;95633.72;6209250;28;20655;-58
2024/02/09 14:17:50;;;;;;;13.67;10.63;;;;;;;11.97;70.17;95629.97;6202197;28;20567;-58
2024/02/09 14:20:53;;;;;;;13.23;10.30;;;;;;;11.76;70.45;95608.25;6209545;28;20193;-57
2024/02/09 14:23:55;;;;;;;15.13;10.43;;;;;;;11.84;71.01;95621.72;6210466;28;20227;-59
2024/02/09 14:26:58;;;;;;;13.93;10.07;;;;;;;11.72;70.49;95618.72;6207434;28;20264;-58
2024/02/09 14:30:01;;;;;;;13.07;9.57;;;;;;;11.58;71.88;95628.66;6211622;28;20198;-57
2024/02/09 14:33:04;;;;;;;14.00;10.87;;;;;;;11.54;72.08;95617.00;6209986;28;20196;-57
2024/02/09 14:36:06;;;;;;;13.43;10.00;;;;;;;11.45;72.98;95616.91;6212015;28;20193;-59
2024/02/09 14:39:09;;;;;;;10.83;8.33;;;;;;;11.44;73.37;95617.22;6210263;28;20269;-59
2024/02/09 14:42:12;;;;;;;12.03;9.37;;;;;;;11.41;75.15;95613.25;6204283;28;20715;-56
2024/02/09 14:45:15;;;;;;;12.03;9.80;;;;;;;11.33;75.21;95619.28;6201664;28;20267;-58
2024/02/09 14:48:18;;;;;;;16.57;9.77;;;;;;;11.27;74.81;95610.56;6208947;28;20197;-58
2024/02/09 14:51:21;;;;;;;13.03;9.57;;;;;;;11.24;74.44;95611.19;6202589;28;20208;-57
2024/02/09 14:54:23;;;;;;;15.47;10.33;;;;;;;11.20;74.25;95614.75;6211651;28;20620;-56
2024/02/09 14:57:26;;;;;;;12.03;9.90;;;;;;;11.15;75.37;95612.19;6207018;28;20196;-58
2024/02/09 15:00:34;;;;;;;15.70;9.97;;;;;;;11.11;75.89;95610.09;6209355;28;20268;-58
2024/02/09 15:03:38;;;;;;;11.30;9.33;;;;;;;11.10;77.73;95613.06;6207021;28;20192;-57
2024/02/09 15:06:44;;;;;;;11.13;8.87;;;;;;;11.06;77.36;95612.84;6208615;28;20237;-58
2024/02/09 15:09:47;;;;;;;12.70;9.70;;;;;;;11.02;76.90;95608.41;6188769;28;20714;-58
2024/02/09 15:12:49;;;;;;;15.47;10.40;;;;;;;11.01;76.09;95604.94;6203395;28;20300;-57
2024/02/09 15:15:51;;;;;;;19.53;12.73;;;;;;;10.96;74.07;95610.38;6212126;28;20226;-58
2024/02/09 15:18:53;;;;;;;18.40;12.87;;;;;;;10.71;74.48;95589.53;6203970;28;20212;-58
2024/02/09 15:21:56;;;;;;;14.13;11.07;;;;;;;10.80;74.50;95604.53;6209189;28;20189;-59
2024/02/09 15:24:58;;;;;;;14.30;10.93;;;;;;;10.80;74.80;95612.53;6202262;28;20210;-59
2024/02/09 15:28:00;;;;;;;13.63;9.10;;;;;;;10.76;77.47;95611.53;6208822;28;20654;-58
2024/02/09 15:31:05;;;;;;;13.77;9.37;;;;;;;10.59;78.25;95604.13;6212348;28;20184;-59
2024/02/09 15:34:09;;;;;;;12.13;8.53;;;;;;;10.52;78.78;95593.03;6211946;28;20204;-58
2024/02/09 15:37:12;;;;;;;15.73;10.17;;;;;;;10.61;79.12;95617.13;6214267;28;20193;-60
2024/02/09 15:40:14;;;;;;;11.57;8.27;;;;;;;10.52;79.22;95619.66;6210158;28;20198;-56
2024/02/09 15:43:20;;;;;;;12.20;9.37;;;;;;;10.44;79.67;95620.34;6201409;28;20662;-57
2024/02/09 15:46:22;;;;;;;12.40;9.30;;;;;;;10.33;80.46;95622.34;6203982;28;20205;-57
2024/02/09 15:49:25;;;;;;;13.37;9.33;;;;;;;10.28;81.24;95614.44;6206606;28;20759;-58
2024/02/09 15:52:28;;;;;;;14.33;9.50;;;;;;;10.09;82.65;95611.78;6206751;28;20912;-58
2024/02/09 15:55:31;;;;;;;13.27;9.57;;;;;;;10.05;84.10;95608.13;6201674;28;20193;-58
2024/02/09 15:58:33;;;;;;;15.33;9.27;;;;;;;9.97;84.43;95608.78;6194591;28;20561;-57
2024/02/09 16:01:38;;;;;;;13.60;9.67;;;;;;;9.93;83.76;95610.44;6201215;28;20208;-57
2024/02/09 16:04:41;;;;;;;16.27;9.37;;;;;;;9.93;84.32;95610.44;6209055;28;20298;-59